createdAt,value
2018-06-09T00:01:03.276Z,5.87
2018-06-09T00:03:32.033Z,5.47
2018-06-09T00:06:00.832Z,5.40
2018-06-09T00:08:29.746Z,5.03
2018-06-09T00:10:58.675Z,5.20
2018-06-09T00:13:27.536Z,4.33
2018-06-09T00:15:56.333Z,4.80
2018-06-09T00:18:25.245Z,4.73
2018-06-09T00:20:54.043Z,5.47
2018-06-09T00:23:22.866Z,4.83
2018-06-09T00:25:51.724Z,5.93
2018-06-09T00:28:20.631Z,5.73
2018-06-09T00:30:49.464Z,4.30
2018-06-09T00:33:18.315Z,5.10
2018-06-09T00:35:47.160Z,4.37
2018-06-09T00:38:16.094Z,4.73
2018-06-09T00:40:44.973Z,5.40
2018-06-09T00:43:13.813Z,4.60
2018-06-09T00:45:42.652Z,4.90
2018-06-09T00:48:11.502Z,4.23
2018-06-09T00:50:40.357Z,5.17
2018-06-09T00:53:09.206Z,5.37
2018-06-09T00:55:38.050Z,5.67
2018-06-09T00:58:06.958Z,6.03
2018-06-09T01:00:36.118Z,6.63
2018-06-09T01:03:05.005Z,6.90
2018-06-09T01:05:33.866Z,7.03
2018-06-09T01:09:07.603Z,6.80
2018-06-09T01:11:36.534Z,6.70
2018-06-09T01:14:05.341Z,7.83
2018-06-09T01:16:34.186Z,8.00
2018-06-09T01:19:03.072Z,7.70
2018-06-09T01:21:31.948Z,8.30
2018-06-09T01:24:00.860Z,7.40
2018-06-09T01:26:29.744Z,7.60
2018-06-09T01:28:58.600Z,7.80
2018-06-09T01:31:27.478Z,6.97
2018-06-09T01:33:56.328Z,8.00
2018-06-09T01:36:25.152Z,8.80
2018-06-09T01:38:56.090Z,9.23
2018-06-09T01:41:24.963Z,8.30
2018-06-09T01:43:53.693Z,7.63
2018-06-09T01:46:22.517Z,8.33
2018-06-09T01:48:52.372Z,8.90
2018-06-09T01:51:21.208Z,8.00
2018-06-09T01:53:50.039Z,8.20
2018-06-09T01:56:18.874Z,8.40
2018-06-09T01:58:47.734Z,8.13
2018-06-09T02:01:16.576Z,8.07
2018-06-09T02:03:45.359Z,9.13
2018-06-09T02:06:14.175Z,8.00
2018-06-09T02:08:42.990Z,8.07
2018-06-09T02:11:11.830Z,7.70
2018-06-09T02:13:40.691Z,9.17
2018-06-09T02:16:09.543Z,8.13
2018-06-09T02:18:38.484Z,7.77
2018-06-09T02:21:07.324Z,7.60
2018-06-09T02:23:36.172Z,8.53
2018-06-09T02:26:05.048Z,7.80
2018-06-09T02:28:33.904Z,7.87
2018-06-09T02:31:02.750Z,8.03
2018-06-09T02:33:31.575Z,7.57
2018-06-09T02:36:00.404Z,6.90
2018-06-09T02:38:29.248Z,7.40
2018-06-09T02:40:58.054Z,7.90
2018-06-09T02:43:26.866Z,8.10
2018-06-09T02:45:55.722Z,6.87
2018-06-09T02:48:24.604Z,7.13
2018-06-09T02:50:53.455Z,6.97
2018-06-09T02:53:22.493Z,6.40
2018-06-09T02:55:51.294Z,7.03
2018-06-09T02:58:20.237Z,7.10
2018-06-09T03:00:49.089Z,6.70
2018-06-09T03:03:17.931Z,6.43
2018-06-09T03:05:46.792Z,6.70
2018-06-09T03:08:15.749Z,7.70
2018-06-09T03:10:44.566Z,6.67
2018-06-09T03:13:13.404Z,7.03
2018-06-09T03:15:42.266Z,6.17
2018-06-09T03:18:11.211Z,8.13
2018-06-09T03:20:40.103Z,7.00
2018-06-09T03:23:08.928Z,6.50
2018-06-09T03:25:37.796Z,8.57
2018-06-09T03:28:06.648Z,7.87
2018-06-09T03:30:35.523Z,7.80
2018-06-09T03:33:04.407Z,7.60
2018-06-09T03:35:33.247Z,6.47
2018-06-09T03:38:02.128Z,6.03
2018-06-09T03:40:30.988Z,7.27
2018-06-09T03:42:59.826Z,6.77
2018-06-09T03:45:28.644Z,7.13
2018-06-09T03:47:57.577Z,5.93
2018-06-09T03:50:26.433Z,7.60
2018-06-09T03:52:55.773Z,8.70
2018-06-09T03:55:24.695Z,7.10
2018-06-09T03:57:53.528Z,8.43
2018-06-09T04:00:22.418Z,7.03
2018-06-09T04:02:51.323Z,7.10
2018-06-09T04:05:20.860Z,7.40
2018-06-09T04:07:49.874Z,7.23
2018-06-09T04:10:18.727Z,8.93
2018-06-09T04:12:47.540Z,7.40
2018-06-09T04:15:16.403Z,7.90
2018-06-09T04:17:45.321Z,8.10
2018-06-09T04:20:14.195Z,8.77
2018-06-09T04:22:43.038Z,8.63
2018-06-09T04:25:11.872Z,8.70
2018-06-09T04:27:40.762Z,9.60
2018-06-09T04:30:09.601Z,7.50
2018-06-09T04:32:38.867Z,8.17
2018-06-09T04:35:07.769Z,7.27
2018-06-09T04:37:36.738Z,6.73
2018-06-09T04:40:05.926Z,6.60
2018-06-09T04:42:35.785Z,7.20
2018-06-09T04:45:05.332Z,6.73
2018-06-09T04:47:34.208Z,6.30
2018-06-09T04:50:03.100Z,6.33
2018-06-09T04:52:31.833Z,7.00
2018-06-09T04:55:01.173Z,7.67
2018-06-09T04:57:31.353Z,6.37
2018-06-09T05:00:00.233Z,5.43
2018-06-09T05:02:29.455Z,5.57
2018-06-09T05:04:58.434Z,5.80
2018-06-09T05:07:29.025Z,5.73
2018-06-09T05:09:58.224Z,6.00
2018-06-09T05:12:27.359Z,6.67
2018-06-09T05:14:56.435Z,6.50
2018-06-09T05:17:25.346Z,5.70
2018-06-09T05:19:54.611Z,6.47
2018-06-09T05:22:23.696Z,5.97
2018-06-09T05:24:52.610Z,6.27
2018-06-09T05:27:22.023Z,5.63
2018-06-09T05:29:50.851Z,6.33
2018-06-09T05:32:19.701Z,6.00
2018-06-09T05:34:48.552Z,5.33
2018-06-09T05:37:17.511Z,4.93
2018-06-09T05:39:46.350Z,5.73
2018-06-09T05:42:15.720Z,5.60
2018-06-09T05:44:44.833Z,4.80
2018-06-09T05:47:13.787Z,4.73
2018-06-09T05:49:42.931Z,5.80
2018-06-09T05:52:11.779Z,6.20
2018-06-09T05:54:40.635Z,6.67
2018-06-09T05:57:09.536Z,5.07
2018-06-09T05:59:38.386Z,5.90
2018-06-09T06:02:07.565Z,7.00
2018-06-09T06:04:36.437Z,5.23
2018-06-09T06:07:05.304Z,6.90
2018-06-09T06:09:34.163Z,6.07
2018-06-09T06:12:03.174Z,5.67
2018-06-09T06:14:32.014Z,5.73
2018-06-09T06:17:00.996Z,5.17
2018-06-09T06:19:29.832Z,7.40
2018-06-09T06:21:58.644Z,5.10
2018-06-09T06:24:27.502Z,5.70
2018-06-09T06:26:56.605Z,5.17
2018-06-09T06:29:25.540Z,5.17
2018-06-09T06:31:54.708Z,5.17
2018-06-09T06:34:23.903Z,5.70
2018-06-09T06:36:52.960Z,6.63
2018-06-09T06:39:22.021Z,7.00
2018-06-09T06:41:51.264Z,8.10
2018-06-09T06:44:20.231Z,7.33
2018-06-09T06:46:49.428Z,6.17
2018-06-09T06:49:18.255Z,6.40
2018-06-09T06:51:47.104Z,6.20
2018-06-09T06:54:16.103Z,5.80
2018-06-09T06:56:44.992Z,7.00
2018-06-09T06:59:13.843Z,6.80
2018-06-09T07:01:42.719Z,5.77
2018-06-09T07:04:11.999Z,7.03
2018-06-09T07:06:40.827Z,5.50
2018-06-09T07:09:09.648Z,6.27
2018-06-09T07:11:38.539Z,7.53
2018-06-09T07:14:07.420Z,6.73
2018-06-09T07:16:36.275Z,6.80
2018-06-09T07:19:05.191Z,6.70
2018-06-09T07:21:34.072Z,7.40
2018-06-09T07:24:02.916Z,7.90
2018-06-09T07:26:31.999Z,6.70
2018-06-09T07:29:00.951Z,6.57
2018-06-09T07:31:29.807Z,6.80
2018-06-09T07:33:58.688Z,6.20
2018-06-09T07:36:27.544Z,6.27
2018-06-09T07:38:56.482Z,5.70
2018-06-09T07:41:25.209Z,5.87
2018-06-09T07:43:54.039Z,6.17
2018-06-09T07:46:22.839Z,5.53
2018-06-09T07:48:51.766Z,5.80
2018-06-09T07:51:20.656Z,5.43
2018-06-09T07:53:49.471Z,6.00
2018-06-09T07:56:18.507Z,5.43
2018-06-09T07:58:47.407Z,5.27
2018-06-09T08:01:16.275Z,5.67
2018-06-09T08:03:45.107Z,5.60
2018-06-09T08:06:13.967Z,4.90
2018-06-09T08:08:42.793Z,4.90
2018-06-09T08:11:11.504Z,4.47
2018-06-09T08:13:40.356Z,5.20
2018-06-09T08:16:09.050Z,5.60
2018-06-09T08:18:37.936Z,5.53
2018-06-09T08:21:06.788Z,4.43
2018-06-09T08:23:35.603Z,4.77
2018-06-09T08:26:04.810Z,5.27
2018-06-09T08:28:33.700Z,5.40
2018-06-09T08:31:02.547Z,5.20
2018-06-09T08:33:31.388Z,5.00
2018-06-09T08:36:00.292Z,5.50
2018-06-09T08:38:29.179Z,5.37
2018-06-09T08:40:58.029Z,5.93
2018-06-09T08:43:26.801Z,5.87
2018-06-09T08:45:55.744Z,6.03
2018-06-09T08:48:24.624Z,5.33
2018-06-09T08:50:53.500Z,5.10
2018-06-09T08:53:22.226Z,4.70
2018-06-09T08:55:51.101Z,5.07
2018-06-09T08:58:20.144Z,4.50
2018-06-09T09:00:49.011Z,5.67
2018-06-09T09:03:17.900Z,5.70
2018-06-09T09:05:46.766Z,6.43
2018-06-09T09:08:15.652Z,5.30
2018-06-09T09:10:44.566Z,5.77
2018-06-09T09:13:13.415Z,5.13
2018-06-09T09:15:42.484Z,5.63
2018-06-09T09:18:11.414Z,5.57
2018-06-09T09:20:40.275Z,4.77
2018-06-09T09:23:09.158Z,5.13
2018-06-09T09:25:37.910Z,5.03
2018-06-09T09:28:06.807Z,4.40
2018-06-09T09:30:35.669Z,4.70
2018-06-09T09:33:04.613Z,4.47
2018-06-09T09:35:33.462Z,3.47
2018-06-09T09:38:02.347Z,4.33
2018-06-09T09:40:31.222Z,5.23
2018-06-09T09:43:00.084Z,4.70
2018-06-09T09:45:28.978Z,5.00
2018-06-09T09:47:58.115Z,4.27
2018-06-09T09:50:27.294Z,4.30
2018-06-09T09:52:56.257Z,3.20
2018-06-09T09:55:25.461Z,4.53
2018-06-09T09:58:00.452Z,3.80
2018-06-09T10:00:35.442Z,4.00
2018-06-09T10:03:04.670Z,3.60
2018-06-09T10:05:33.539Z,4.27
2018-06-09T10:08:03.256Z,3.70
2018-06-09T10:10:32.516Z,3.80
2018-06-09T10:13:01.329Z,3.50
2018-06-09T10:15:30.069Z,2.83
2018-06-09T10:17:59.024Z,3.80
2018-06-09T10:20:27.898Z,4.33
2018-06-09T10:22:56.744Z,4.23
2018-06-09T10:25:25.603Z,3.80
2018-06-09T10:27:54.485Z,3.73
2018-06-09T10:30:23.331Z,4.10
2018-06-09T10:32:52.274Z,3.80
2018-06-09T10:35:21.076Z,4.10
2018-06-09T10:37:51.176Z,4.03
2018-06-09T10:40:20.011Z,4.83
2018-06-09T10:42:48.912Z,5.23
2018-06-09T10:45:17.787Z,3.83
2018-06-09T10:47:47.429Z,4.10
2018-06-09T10:50:16.796Z,4.10
2018-06-09T10:52:45.690Z,4.53
2018-06-09T10:55:14.541Z,4.27
2018-06-09T10:57:43.416Z,6.00
2018-06-09T11:00:12.260Z,3.97
2018-06-09T11:02:41.138Z,3.90
2018-06-09T11:05:10.122Z,3.37
2018-06-09T11:07:38.989Z,3.80
2018-06-09T11:10:07.758Z,3.37
2018-06-09T11:12:37.239Z,5.47
2018-06-09T11:15:06.568Z,4.93
2018-06-09T11:17:35.479Z,5.20
2018-06-09T11:20:04.997Z,5.63
2018-06-09T11:22:33.946Z,4.90
2018-06-09T11:25:02.833Z,4.63
2018-06-09T11:27:31.755Z,4.70
2018-06-09T11:30:00.600Z,3.60
2018-06-09T11:32:29.980Z,5.53
2018-06-09T11:34:59.607Z,4.80
2018-06-09T11:37:28.572Z,4.63
2018-06-09T11:39:57.427Z,5.20
2018-06-09T11:42:26.292Z,4.63
2018-06-09T11:44:55.143Z,5.13
2018-06-09T11:47:24.707Z,4.80
2018-06-09T11:49:53.980Z,4.13
2018-06-09T11:52:22.864Z,5.23
2018-06-09T11:54:52.188Z,4.60
2018-06-09T11:57:21.083Z,4.37
2018-06-09T11:59:49.912Z,5.00
2018-06-09T12:02:18.798Z,3.80
2018-06-09T12:04:47.653Z,5.13
2018-06-09T12:07:16.565Z,4.60
2018-06-09T12:09:45.436Z,4.10
2018-06-09T12:12:14.698Z,3.87
2018-06-09T12:14:43.757Z,4.17
2018-06-09T12:17:12.651Z,4.30
2018-06-09T12:19:41.504Z,4.07
2018-06-09T12:22:10.360Z,4.63
2018-06-09T12:24:39.228Z,4.90
2018-06-09T12:27:08.091Z,4.50
2018-06-09T12:29:36.963Z,4.20
2018-06-09T12:32:05.707Z,5.23
2018-06-09T12:34:34.579Z,4.60
2018-06-09T12:37:03.882Z,4.40
2018-06-09T12:39:32.765Z,4.50
2018-06-09T12:42:01.604Z,3.70
2018-06-09T12:44:30.594Z,4.50
2018-06-09T12:46:59.836Z,5.27
2018-06-09T12:49:28.676Z,4.80
2018-06-09T12:51:57.483Z,4.27
2018-06-09T12:54:26.359Z,4.10
2018-06-09T12:56:55.319Z,5.13
2018-06-09T12:59:24.168Z,5.77
2018-06-09T13:01:52.979Z,5.87
2018-06-09T13:04:21.831Z,4.30
2018-06-09T13:06:50.663Z,4.43
2018-06-09T13:09:19.538Z,4.67
2018-06-09T13:11:48.403Z,5.17
2018-06-09T13:14:17.251Z,5.37
2018-06-09T13:16:46.103Z,4.63
2018-06-09T13:19:14.925Z,4.43
2018-06-09T13:21:43.900Z,4.53
2018-06-09T13:24:12.705Z,4.23
2018-06-09T13:26:41.576Z,5.27
2018-06-09T13:29:10.472Z,7.20
2018-06-09T13:31:39.295Z,3.93
2018-06-09T13:34:08.126Z,6.20
2018-06-09T13:36:36.854Z,5.07
2018-06-09T13:39:07.393Z,3.77
2018-06-09T13:41:36.424Z,4.03
2018-06-09T13:44:05.286Z,5.20
2018-06-09T13:46:34.156Z,4.90
2018-06-09T13:49:03.059Z,4.37
2018-06-09T13:51:31.932Z,4.50
2018-06-09T13:54:00.785Z,4.80
2018-06-09T13:56:29.672Z,4.83
2018-06-09T13:58:58.572Z,4.20
2018-06-09T14:01:27.452Z,5.17
2018-06-09T14:03:56.301Z,5.83
2018-06-09T14:06:25.144Z,4.90
2018-06-09T14:08:54.102Z,4.17
2018-06-09T14:11:22.939Z,4.93
2018-06-09T14:13:51.820Z,4.30
2018-06-09T14:16:20.659Z,4.43
2018-06-09T14:18:49.486Z,5.87
2018-06-09T14:21:18.343Z,10.90
2018-06-09T14:23:47.186Z,5.10
2018-06-09T14:26:15.922Z,4.30
2018-06-09T14:28:44.843Z,4.50
2018-06-09T14:31:13.720Z,4.40
2018-06-09T14:33:42.620Z,5.30
2018-06-09T14:36:11.442Z,4.10
2018-06-09T14:38:40.361Z,4.80
2018-06-09T14:41:16.050Z,4.97
2018-06-09T14:43:45.014Z,4.43
2018-06-09T14:46:13.860Z,4.33
2018-06-09T14:48:42.749Z,6.27
2018-06-09T14:51:11.582Z,5.00
2018-06-09T14:53:40.449Z,3.90
2018-06-09T14:56:09.290Z,4.50
2018-06-09T14:58:38.123Z,4.30
2018-06-09T15:01:06.972Z,4.83
2018-06-09T15:03:35.744Z,4.97
2018-06-09T15:06:04.659Z,4.00
2018-06-09T15:08:33.514Z,4.10
2018-06-09T15:11:03.541Z,4.37
2018-06-09T15:13:32.359Z,4.80
2018-06-09T15:16:01.200Z,4.47
2018-06-09T15:18:30.154Z,4.70
2018-06-09T15:20:59.051Z,4.43
2018-06-09T15:23:27.917Z,3.90
2018-06-09T15:25:56.625Z,4.00
2018-06-09T15:28:25.538Z,5.30
2018-06-09T15:30:54.371Z,4.00
2018-06-09T15:33:23.183Z,5.10
2018-06-09T15:35:52.019Z,4.90
2018-06-09T15:38:21.011Z,5.00
2018-06-09T15:40:49.860Z,5.17
2018-06-09T15:43:18.750Z,4.67
2018-06-09T15:45:47.604Z,4.73
2018-06-09T15:48:16.567Z,4.50
2018-06-09T15:50:45.425Z,4.17
2018-06-09T15:53:14.279Z,4.20
2018-06-09T15:55:43.127Z,4.00
2018-06-09T15:58:12.095Z,4.77
2018-06-09T16:00:40.920Z,4.40
2018-06-09T16:03:09.759Z,4.87
2018-06-09T16:05:38.603Z,3.47
2018-06-09T16:08:07.536Z,4.80
2018-06-09T16:10:36.356Z,4.20
2018-06-09T16:13:05.256Z,3.87
2018-06-09T16:15:34.096Z,5.57
2018-06-09T16:18:03.032Z,4.83
2018-06-09T16:20:31.869Z,4.70
2018-06-09T16:23:00.704Z,5.17
2018-06-09T16:25:29.597Z,3.90
2018-06-09T16:27:58.459Z,5.03
2018-06-09T16:30:27.322Z,4.47
2018-06-09T16:32:56.167Z,4.47
2018-06-09T16:35:25.013Z,4.77
2018-06-09T16:37:53.932Z,4.83
2018-06-09T16:40:22.788Z,4.27
2018-06-09T16:42:51.632Z,4.00
2018-06-09T16:45:20.471Z,5.13
2018-06-09T16:48:52.837Z,4.93
2018-06-09T16:51:21.651Z,4.70
2018-06-09T16:53:50.374Z,4.37
2018-06-09T16:56:19.185Z,4.70
2018-06-09T16:58:48.130Z,4.83
2018-06-09T17:01:16.956Z,5.47
2018-06-09T17:03:45.747Z,5.30
2018-06-09T17:06:14.568Z,4.57
2018-06-09T17:08:43.494Z,4.60
2018-06-09T17:11:12.359Z,4.20
2018-06-09T17:13:41.182Z,4.30
2018-06-09T17:16:10.108Z,5.30
2018-06-09T17:18:38.955Z,4.90
2018-06-09T17:21:07.835Z,4.80
2018-06-09T17:23:36.852Z,4.10
2018-06-09T17:26:05.807Z,4.53
2018-06-09T17:28:34.726Z,4.23
2018-06-09T17:31:03.588Z,3.87
2018-06-09T17:33:32.334Z,4.70
2018-06-09T17:36:01.249Z,4.10
2018-06-09T17:38:30.174Z,4.47
2018-06-09T17:40:58.998Z,4.70
2018-06-09T17:43:27.835Z,4.77
2018-06-09T17:45:56.660Z,4.77
2018-06-09T17:48:25.516Z,5.83
2018-06-09T17:50:54.355Z,5.23
2018-06-09T17:53:23.243Z,4.23
2018-06-09T17:55:52.076Z,5.43
2018-06-09T17:58:21.034Z,5.67
2018-06-09T18:00:49.867Z,5.83
2018-06-09T18:03:18.740Z,5.80
2018-06-09T18:05:47.517Z,5.77
2018-06-09T18:08:16.454Z,4.40
2018-06-09T18:10:45.311Z,5.00
2018-06-09T18:13:14.171Z,4.77
2018-06-09T18:15:43.012Z,6.60
2018-06-09T18:18:11.907Z,5.30
2018-06-09T18:20:40.740Z,5.00
2018-06-09T18:23:09.599Z,4.83
2018-06-09T18:25:38.431Z,5.00
2018-06-09T18:28:07.439Z,4.10
2018-06-09T18:30:36.355Z,6.23
2018-06-09T18:33:05.204Z,5.53
2018-06-09T18:35:34.032Z,6.20
2018-06-09T18:38:02.952Z,5.80
2018-06-09T18:40:31.828Z,5.60
2018-06-09T18:43:00.659Z,5.47
2018-06-09T18:45:29.520Z,4.83
2018-06-09T18:47:58.404Z,4.50
2018-06-09T18:50:27.268Z,5.77
2018-06-09T18:52:56.101Z,5.10
2018-06-09T18:55:24.923Z,5.70
2018-06-09T18:57:54.207Z,5.13
2018-06-09T19:00:23.059Z,6.00
2018-06-09T19:02:51.972Z,4.87
2018-06-09T19:05:20.846Z,5.30
2018-06-09T19:07:49.738Z,5.60
2018-06-09T19:10:18.604Z,5.37
2018-06-09T19:12:47.442Z,4.97
2018-06-09T19:15:16.289Z,6.03
2018-06-09T19:17:45.162Z,4.20
2018-06-09T19:20:13.988Z,5.37
2018-06-09T19:22:42.847Z,4.87
2018-06-09T19:25:11.695Z,5.80
2018-06-09T19:27:40.553Z,5.50
2018-06-09T19:30:09.390Z,5.40
2018-06-09T19:32:38.299Z,5.97
2018-06-09T19:35:07.106Z,5.50
2018-06-09T19:37:36.031Z,7.70
2018-06-09T19:40:04.912Z,6.23
2018-06-09T19:42:33.800Z,5.83
2018-06-09T19:45:03.282Z,6.60
2018-06-09T19:47:32.708Z,6.77
2018-06-09T19:50:01.623Z,5.70
2018-06-09T19:52:31.016Z,6.53
2018-06-09T19:55:01.053Z,6.80
2018-06-09T19:57:30.468Z,10.80
2018-06-09T20:00:00.062Z,6.50
2018-06-09T20:02:29.184Z,5.67
2018-06-09T20:04:58.428Z,5.30
2018-06-09T20:07:27.901Z,6.00
2018-06-09T20:09:56.816Z,9.97
2018-06-09T20:12:25.676Z,14.03
2018-06-09T20:14:54.616Z,9.40
2018-06-09T20:17:23.492Z,8.53
2018-06-09T20:19:52.383Z,6.37
2018-06-09T20:22:21.243Z,7.67
2018-06-09T20:24:50.113Z,5.90
2018-06-09T20:27:19.051Z,5.40
2018-06-09T20:29:47.889Z,6.60
2018-06-09T20:32:16.904Z,5.70
2018-06-09T20:34:45.844Z,6.40
2018-06-09T20:37:14.744Z,10.17
2018-06-09T20:39:43.639Z,11.80
2018-06-09T20:42:13.394Z,10.23
2018-06-09T20:44:42.294Z,10.20
2018-06-09T20:47:11.212Z,8.93
2018-06-09T20:49:40.071Z,8.50
2018-06-09T20:52:08.892Z,7.50
2018-06-09T20:54:38.103Z,6.90
2018-06-09T20:57:07.100Z,7.70
2018-06-09T20:59:36.407Z,6.00
2018-06-09T21:02:05.377Z,5.80
2018-06-09T21:04:34.260Z,5.83
2018-06-09T21:07:04.263Z,7.10
2018-06-09T21:09:33.172Z,7.70
2018-06-09T21:12:02.031Z,7.57
2018-06-09T21:14:32.449Z,7.77
2018-06-09T21:17:01.784Z,13.80
2018-06-09T21:19:30.690Z,9.00
2018-06-09T21:21:59.539Z,6.90
2018-06-09T21:24:28.405Z,5.97
2018-06-09T21:27:02.859Z,5.47
2018-06-09T21:29:38.233Z,5.13
2018-06-09T21:32:08.717Z,5.80
2018-06-09T21:35:00.099Z,6.27
2018-06-09T21:37:35.380Z,5.33
2018-06-09T21:40:08.514Z,5.77
2018-06-09T21:42:48.896Z,5.00
2018-06-09T21:45:28.260Z,6.70
2018-06-09T21:47:57.080Z,6.80
2018-06-09T21:50:25.948Z,5.90
2018-06-09T21:52:54.803Z,6.30
2018-06-09T21:55:23.671Z,5.63
2018-06-09T21:57:52.698Z,5.90
2018-06-09T22:00:26.056Z,6.00
2018-06-09T22:02:55.694Z,4.90
2018-06-09T22:05:24.604Z,6.20
2018-06-09T22:07:53.512Z,5.80
2018-06-09T22:10:22.492Z,5.80
2018-06-09T22:12:51.231Z,6.40
2018-06-09T22:15:20.108Z,5.53
2018-06-09T22:17:48.970Z,5.57
2018-06-09T22:20:17.694Z,5.80
2018-06-09T22:22:46.563Z,5.33
2018-06-09T22:25:19.929Z,6.03
2018-06-09T22:27:48.859Z,6.37
2018-06-09T22:30:17.711Z,5.33
2018-06-09T22:32:46.552Z,6.30
2018-06-09T22:35:15.395Z,6.03
2018-06-09T22:37:44.202Z,4.93
2018-06-09T22:40:13.047Z,6.40
2018-06-09T22:42:41.870Z,6.40
2018-06-09T22:45:10.743Z,6.00
2018-06-09T22:47:39.664Z,5.17
2018-06-09T22:50:08.567Z,6.00
2018-06-09T22:52:37.404Z,5.60
2018-06-09T22:55:06.324Z,5.73
2018-06-09T22:57:35.234Z,6.10
2018-06-09T23:00:04.352Z,6.40
2018-06-09T23:02:33.184Z,5.30
2018-06-09T23:05:02.073Z,6.27
2018-06-09T23:07:30.886Z,5.60
2018-06-09T23:09:59.726Z,5.23
2018-06-09T23:12:28.611Z,6.50
2018-06-09T23:14:57.477Z,5.53
2018-06-09T23:17:26.327Z,5.17
2018-06-09T23:19:55.053Z,6.07
2018-06-09T23:22:23.976Z,6.90
2018-06-09T23:24:52.780Z,5.53
2018-06-09T23:27:21.709Z,6.50
2018-06-09T23:29:50.532Z,5.83
2018-06-09T23:32:19.409Z,7.23
2018-06-09T23:34:48.311Z,6.03
2018-06-09T23:37:17.168Z,5.20
2018-06-09T23:39:46.108Z,5.73
2018-06-09T23:42:14.970Z,6.17
2018-06-09T23:44:43.791Z,6.43
2018-06-09T23:47:12.643Z,6.07
2018-06-09T23:49:41.528Z,6.30
2018-06-09T23:52:10.567Z,5.90
2018-06-09T23:54:39.455Z,6.87
2018-06-09T23:57:08.396Z,6.20
2018-06-09T23:59:37.275Z,5.30
